createdAt,value
2018-09-17T00:02:14.786Z,47.6
2018-09-17T00:07:13.186Z,47.8
2018-09-17T00:12:11.260Z,47.9
2018-09-17T00:17:09.241Z,47.9
2018-09-17T00:22:07.028Z,48
2018-09-17T00:27:04.937Z,48.7
2018-09-17T00:32:02.943Z,49
2018-09-17T00:37:01.171Z,49.4
2018-09-17T00:41:58.961Z,49.6
2018-09-17T00:46:56.641Z,49.6
2018-09-17T00:51:54.864Z,49.8
2018-09-17T00:56:52.887Z,50.1
2018-09-17T01:01:51.114Z,50.3
2018-09-17T01:06:49.095Z,50.6
2018-09-17T01:11:47.255Z,50.7
2018-09-17T01:16:44.724Z,50.9
2018-09-17T01:21:42.728Z,51.1
2018-09-17T01:26:40.841Z,51.2
2018-09-17T01:31:38.791Z,51.4
2018-09-17T01:36:36.870Z,51.6
2018-09-17T01:41:34.801Z,51.6
2018-09-17T01:46:33.423Z,51.7
2018-09-17T01:51:32.047Z,51.6
2018-09-17T01:56:29.980Z,51.9
2018-09-17T02:01:28.320Z,51.9
2018-09-17T02:06:26.165Z,52
2018-09-17T02:11:24.133Z,51.7
2018-09-17T02:16:22.457Z,51.6
2018-09-17T02:21:20.582Z,51.9
2018-09-17T02:26:18.781Z,52.1
2018-09-17T02:31:16.655Z,52.4
2018-09-17T02:36:14.770Z,52.6
2018-09-17T02:41:12.916Z,52.5
2018-09-17T02:46:10.779Z,52.8
2018-09-17T02:51:08.893Z,52.8
2018-09-17T02:56:06.912Z,52.8
2018-09-17T03:01:04.868Z,53.3
2018-09-17T03:06:02.612Z,53.3
2018-09-17T03:11:00.908Z,53.6
2018-09-17T03:15:59.837Z,53.6
2018-09-17T03:20:57.646Z,53.7
2018-09-17T03:25:55.645Z,54
2018-09-17T03:30:53.808Z,54
2018-09-17T03:35:53.067Z,53.9
2018-09-17T03:40:50.742Z,54.3
2018-09-17T03:45:48.743Z,54.2
2018-09-17T03:50:46.563Z,54.1
2018-09-17T03:55:44.589Z,54.2
2018-09-17T04:00:43.017Z,54.4
2018-09-17T04:05:40.929Z,54.2
2018-09-17T04:10:40.348Z,54.5
2018-09-17T04:15:37.903Z,54.5
2018-09-17T04:20:37.309Z,54.4
2018-09-17T04:25:35.172Z,54.6
2018-09-17T04:30:34.939Z,54.6
2018-09-17T04:35:33.967Z,54.3
2018-09-17T04:40:31.834Z,54
2018-09-17T04:45:29.880Z,54.2
2018-09-17T04:50:27.988Z,54.2
2018-09-17T04:55:26.031Z,54.4
2018-09-17T05:00:24.409Z,54.1
2018-09-17T05:05:22.221Z,54.1
2018-09-17T05:10:19.721Z,54
2018-09-17T05:15:17.678Z,53.9
2018-09-17T05:20:15.698Z,53.8
2018-09-17T05:25:13.616Z,53.9
2018-09-17T05:30:11.542Z,53.9
2018-09-17T05:35:09.742Z,53.8
2018-09-17T05:40:07.672Z,53.7
2018-09-17T05:45:05.805Z,53.5
2018-09-17T05:50:03.799Z,53.4
2018-09-17T05:55:02.542Z,53.5
2018-09-17T06:00:00.224Z,53.5
2018-09-17T06:04:58.254Z,53.8
2018-09-17T06:09:56.172Z,53.4
2018-09-17T06:14:54.226Z,53.5
2018-09-17T06:19:51.988Z,53.4
2018-09-17T06:24:49.544Z,53.2
2018-09-17T06:29:48.261Z,53.1
2018-09-17T06:34:46.422Z,53
2018-09-17T06:39:44.178Z,53
2018-09-17T06:44:43.082Z,53
2018-09-17T06:49:40.826Z,53
2018-09-17T06:54:39.635Z,53
2018-09-17T06:59:37.643Z,53.1
2018-09-17T07:04:35.951Z,52.9
2018-09-17T07:09:33.812Z,52.7
2018-09-17T07:14:31.653Z,52.9
2018-09-17T07:19:29.393Z,52.9
2018-09-17T07:24:27.191Z,53
2018-09-17T07:29:25.345Z,52.8
2018-09-17T07:34:23.048Z,52.9
2018-09-17T07:39:21.528Z,53
2018-09-17T07:44:19.779Z,52.9
2018-09-17T07:49:18.095Z,53
2018-09-17T07:54:16.874Z,52.9
2018-09-17T07:59:14.948Z,52.9
2018-09-17T08:04:13.429Z,52.9
2018-09-17T08:09:11.095Z,53
2018-09-17T08:14:09.265Z,52.9
2018-09-17T08:19:07.268Z,53.2
2018-09-17T08:24:05.590Z,53.6
2018-09-17T08:29:03.133Z,54
2018-09-17T08:34:03.424Z,54.2
2018-09-17T08:39:01.033Z,54.6
2018-09-17T08:43:59.127Z,54.8
2018-09-17T08:48:56.723Z,54.9
2018-09-17T08:53:55.279Z,55
2018-09-17T08:58:53.662Z,54.9
2018-09-17T09:03:52.353Z,55.1
2018-09-17T09:08:50.460Z,55.2
2018-09-17T09:13:48.597Z,55.3
2018-09-17T09:18:46.921Z,55.1
2018-09-17T09:23:45.141Z,55.1
2018-09-17T09:28:43.388Z,55
2018-09-17T09:33:41.499Z,54.7
2018-09-17T09:38:39.514Z,54.4
2018-09-17T09:43:37.825Z,54.4
2018-09-17T09:48:35.886Z,54.5
2018-09-17T09:53:34.173Z,54.2
2018-09-17T09:58:32.365Z,54
2018-09-17T10:03:30.536Z,53.8
2018-09-17T10:08:28.462Z,53.7
2018-09-17T10:13:26.533Z,53.4
2018-09-17T10:18:24.528Z,53.4
2018-09-17T10:23:22.637Z,52.9
2018-09-17T10:28:20.509Z,52.4
2018-09-17T10:33:18.492Z,52.1
2018-09-17T10:38:16.629Z,51.9
2018-09-17T10:43:14.920Z,51.4
2018-09-17T10:48:13.054Z,50.7
2018-09-17T10:53:11.526Z,50.1
2018-09-17T10:58:09.827Z,49.4
2018-09-17T11:03:07.996Z,49.5
2018-09-17T11:08:05.891Z,49.6
2018-09-17T11:13:03.958Z,49.2
2018-09-17T11:18:02.622Z,49.3
2018-09-17T11:23:02.836Z,49.2
2018-09-17T11:28:00.823Z,48.7
2018-09-17T11:32:58.901Z,48.3
2018-09-17T11:37:57.013Z,48.2
2018-09-17T11:42:55.325Z,47.8
2018-09-17T11:47:53.398Z,48
2018-09-17T11:52:52.348Z,47.3
2018-09-17T11:57:51.667Z,46.4
2018-09-17T12:02:49.875Z,45.8
2018-09-17T12:07:47.923Z,45.1
2018-09-17T12:12:46.225Z,44.8
2018-09-17T12:17:44.370Z,44.5
2018-09-17T12:22:42.302Z,44.1
2018-09-17T12:27:40.629Z,43.5
2018-09-17T12:32:39.714Z,43.3
2018-09-17T12:37:37.364Z,42.6
2018-09-17T12:42:35.722Z,42.2
2018-09-17T12:47:33.979Z,41.9
2018-09-17T12:52:32.291Z,41.8
2018-09-17T12:57:30.659Z,42.1
2018-09-17T13:02:29.075Z,42
2018-09-17T13:07:27.349Z,41.9
2018-09-17T13:12:25.806Z,41.9
2018-09-17T13:17:24.121Z,41.7
2018-09-17T13:22:22.547Z,41.4
2018-09-17T13:27:20.787Z,41.6
2018-09-17T13:32:19.139Z,41.6
2018-09-17T13:37:17.409Z,41.7
2018-09-17T13:42:15.545Z,41.7
2018-09-17T13:47:13.532Z,41.8
2018-09-17T13:52:11.569Z,41.7
2018-09-17T13:57:09.958Z,41.9
2018-09-17T14:02:08.578Z,41.4
2018-09-17T14:07:06.472Z,41
2018-09-17T14:12:04.882Z,40.8
2018-09-17T14:17:02.874Z,41
2018-09-17T14:22:01.648Z,41
2018-09-17T14:26:59.583Z,41.1
2018-09-17T14:31:57.584Z,40.9
2018-09-17T14:36:55.503Z,40.9
2018-09-17T14:41:53.472Z,41.1
2018-09-17T14:46:51.639Z,41
2018-09-17T14:51:49.629Z,41.3
2018-09-17T14:56:47.825Z,41.3
2018-09-17T15:01:46.400Z,41.2
2018-09-17T15:06:44.312Z,41.3
2018-09-17T15:11:42.689Z,41.4
2018-09-17T15:16:40.958Z,41.4
2018-09-17T15:21:38.921Z,41.6
2018-09-17T15:26:37.406Z,41.7
2018-09-17T15:31:35.319Z,41.6
2018-09-17T15:36:33.771Z,41.7
2018-09-17T15:41:32.298Z,41.8
2018-09-17T15:46:30.407Z,41.8
2018-09-17T15:51:28.948Z,41.7
2018-09-17T15:56:27.118Z,41.7
2018-09-17T16:01:25.864Z,41.8
2018-09-17T16:06:24.213Z,42
2018-09-17T16:11:22.574Z,42
2018-09-17T16:16:20.590Z,42.2
2018-09-17T16:21:19.029Z,42.3
2018-09-17T16:26:17.460Z,42.4
2018-09-17T16:31:15.664Z,42.4
2018-09-17T16:36:13.792Z,42.4
2018-09-17T16:41:12.147Z,42.6
2018-09-17T16:46:10.476Z,42.8
2018-09-17T16:51:09.040Z,42.9
2018-09-17T16:56:07.567Z,43.1
2018-09-17T17:01:05.947Z,43.1
2018-09-17T17:06:03.839Z,43.2
2018-09-17T17:11:02.696Z,43.3
2018-09-17T17:16:00.696Z,43.4
2018-09-17T17:20:58.880Z,43.5
2018-09-17T17:25:57.411Z,43.6
2018-09-17T17:30:55.530Z,43.8
2018-09-17T17:35:53.770Z,44
2018-09-17T17:40:51.993Z,44.1
2018-09-17T17:45:50.790Z,44.4
2018-09-17T17:50:49.459Z,44.4
2018-09-17T17:55:48.312Z,44.5
2018-09-17T18:00:47.004Z,44.5
2018-09-17T18:05:44.957Z,44.7
2018-09-17T18:10:43.456Z,44.8
2018-09-17T18:15:41.553Z,45.1
2018-09-17T18:20:39.772Z,45.3
2018-09-17T18:25:37.863Z,45.7
2018-09-17T18:30:35.909Z,45.9
2018-09-17T18:35:34.255Z,46.2
2018-09-17T18:40:32.568Z,46.4
2018-09-17T18:45:30.837Z,46.6
2018-09-17T18:50:31.241Z,46.8
2018-09-17T18:55:29.242Z,46.8
2018-09-17T19:00:27.549Z,47
2018-09-17T19:05:26.267Z,47
2018-09-17T19:10:24.340Z,47.2
2018-09-17T19:15:22.495Z,47.4
2018-09-17T19:20:20.948Z,47.4
2018-09-17T19:25:19.100Z,47.5
2018-09-17T19:30:17.278Z,47.5
2018-09-17T19:35:15.391Z,47.5
2018-09-17T19:40:13.670Z,48
2018-09-17T19:45:11.886Z,48.3
2018-09-17T19:50:10.249Z,48.6
2018-09-17T19:55:08.596Z,48.7
2018-09-17T20:00:07.324Z,49
2018-09-17T20:05:05.503Z,49.2
2018-09-17T20:10:03.748Z,49.4
2018-09-17T20:15:01.994Z,49.5
2018-09-17T20:20:00.227Z,49.8
2018-09-17T20:24:58.602Z,50
2018-09-17T20:29:57.112Z,50.2
2018-09-17T20:34:55.166Z,50.7
2018-09-17T20:39:53.178Z,50.8
2018-09-17T20:44:51.334Z,50.9
2018-09-17T20:49:49.716Z,51.1
2018-09-17T20:54:47.850Z,51.3
2018-09-17T20:59:46.573Z,51.7
2018-09-17T21:04:44.607Z,51.6
2018-09-17T21:09:42.742Z,51.8
2018-09-17T21:14:41.065Z,51.9
2018-09-17T21:19:39.341Z,52.1
2018-09-17T21:24:37.505Z,52.3
2018-09-17T21:29:35.852Z,52.5
2018-09-17T21:34:34.313Z,52.4
2018-09-17T21:39:32.519Z,52.6
2018-09-17T21:44:30.876Z,52.7
2018-09-17T21:49:29.379Z,52.7
2018-09-17T21:54:27.748Z,52.8
2018-09-17T21:59:26.416Z,52.7
2018-09-17T22:04:24.771Z,52.7
2018-09-17T22:09:23.058Z,52.9
2018-09-17T22:14:21.261Z,52.9
2018-09-17T22:19:19.686Z,53
2018-09-17T22:24:17.753Z,53.2
2018-09-17T22:29:16.489Z,53.2
2018-09-17T22:34:14.208Z,53.3
2018-09-17T22:39:13.058Z,53.2
2018-09-17T22:44:11.324Z,53.2
2018-09-17T22:49:09.883Z,53.3
2018-09-17T22:54:08.348Z,53.4
2018-09-17T22:59:07.263Z,53.3
2018-09-17T23:04:05.595Z,53.4
2018-09-17T23:09:04.163Z,53.4
2018-09-17T23:14:02.868Z,53.3
2018-09-17T23:19:01.121Z,53.3
2018-09-17T23:23:59.497Z,53.5
2018-09-17T23:28:57.868Z,53.5
2018-09-17T23:33:56.211Z,53.4
2018-09-17T23:38:54.765Z,53.4
2018-09-17T23:43:53.080Z,53.4
2018-09-17T23:48:51.937Z,53.4
2018-09-17T23:53:50.348Z,53.3
2018-09-17T23:58:48.825Z,53.3
